Time;durP1;ratioP1;P1;durP2;ratioP2;P2;SDS_P1;SDS_P2;PMS_P1;PMS_P2;Temp;Humidity;BMP_temperature;BMP_pressure;BME280_temperature;BME280_humidity;BME280_pressure;Samples;Min_cycle;Max_cycle;Signal;HPM_P1;HPM_P2
2023/05/07 00:01:58;;;;;;;;;;;;;;;7.85;83.49;102191.97;5030510;28;20004;-75
2023/05/07 00:04:23;;;;;;;;;;;;;;;7.79;83.42;102184.84;5013282;28;20468;-79
2023/05/07 00:06:49;;;;;;;;;;;;;;;7.83;83.56;102196.72;5025885;28;19943;-78
2023/05/07 00:09:16;;;;;;;;;;;;;;;7.77;83.16;102202.91;5027336;28;19962;-78
2023/05/07 00:11:41;;;;;;;;;;;;;;;7.76;83.12;102195.94;5006167;28;19936;-80
2023/05/07 00:14:07;;;;;;;;;;;;;;;7.78;82.80;102199.19;5027351;28;19937;-78
2023/05/07 00:16:33;;;;;;;;;;;;;;;7.80;82.99;102194.50;5039729;28;20640;-77
2023/05/07 00:18:58;;;;;;;;;;;;;;;7.78;82.92;102193.88;5026713;28;19951;-76
2023/05/07 00:21:26;;;;;;;;;;;;;;;7.73;83.06;102191.03;5017244;28;19937;-81
2023/05/07 00:23:52;;;;;;;;;;;;;;;7.71;83.46;102198.41;5027846;28;19928;-78
2023/05/07 00:26:17;;;;;;;;;;;;;;;7.78;83.45;102198.38;5046314;28;20458;-79
2023/05/07 00:28:45;;;;;;;;;;;;;;;7.79;82.95;102198.19;5017504;28;19948;-79
2023/05/07 00:31:10;;;;;;;;;;;;;;;7.77;83.04;102194.91;5039970;28;19967;-78
2023/05/07 00:33:35;;;;;;;;;;;;;;;7.79;82.97;102198.19;5032703;28;19942;-77
2023/05/07 00:36:01;;;;;;;;;;;;;;;7.81;82.46;102204.13;5015947;28;19942;-78
2023/05/07 00:38:27;;;;;;;;;;;;;;;7.73;82.83;102188.38;5031837;28;20007;-81
2023/05/07 00:40:52;;;;;;;;;;;;;;;7.75;83.02;102188.16;5036665;28;19962;-78
2023/05/07 00:43:18;;;;;;;;;;;;;;;7.73;83.13;102201.72;5036079;28;19985;-79
2023/05/07 00:45:44;;;;;;;;;;;;;;;7.79;82.54;102192.84;5018957;28;19939;-78
2023/05/07 00:48:09;;;;;;;;;;;;;;;7.78;82.65;102191.19;5034239;28;19957;-79
2023/05/07 00:50:35;;;;;;;;;;;;;;;7.84;82.30;102179.66;5033952;28;19930;-78
2023/05/07 00:53:01;;;;;;;;;;;;;;;7.81;82.47;102177.44;5035418;28;19947;-78
2023/05/07 00:55:27;;;;;;;;;;;;;;;7.87;82.33;102178.44;5035165;28;20019;-77
2023/05/07 00:57:53;;;;;;;;;;;;;;;7.86;82.67;102172.28;5023437;28;19971;-78
2023/05/07 01:00:19;;;;;;;;;;;;;;;7.85;82.44;102167.16;5036061;28;19936;-78
2023/05/07 01:02:46;;;;;;;;;;;;;;;7.90;82.53;102170.81;5033720;28;19957;-77
2023/05/07 01:05:14;;;;;;;;;;;;;;;7.85;82.21;102173.28;5032396;28;19937;-79
2023/05/07 01:07:40;;;;;;;;;;;;;;;7.87;82.45;102176.59;5041504;28;19931;-78
2023/05/07 01:10:06;;;;;;;;;;;;;;;7.90;82.66;102168.13;5030226;28;19939;-78
2023/05/07 01:12:32;;;;;;;;;;;;;;;7.87;82.31;102176.59;5032130;28;19975;-79
2023/05/07 01:14:58;;;;;;;;;;;;;;;7.91;81.21;102171.63;5033557;28;19945;-77
2023/05/07 01:17:24;;;;;;;;;;;;;;;7.90;81.23;102167.31;5028294;28;19943;-77
2023/05/07 01:19:52;;;;;;;;;;;;;;;7.92;81.34;102174.09;5032307;28;19989;-78
2023/05/07 01:22:32;;;;;;;;;;;;;;;7.92;80.71;102173.25;5047210;28;19963;-78
2023/05/07 01:24:59;;;;;;;;;;;;;;;7.90;80.82;102172.66;5034412;28;19929;-79
2023/05/07 01:27:26;;;;;;;;;;;;;;;7.92;80.44;102171.44;5020788;28;19944;-79
2023/05/07 01:29:52;;;;;;;;;;;;;;;7.98;79.99;102168.91;5020898;28;19945;-78
2023/05/07 01:32:21;;;;;;;;;;;;;;;7.93;79.97;102159.72;5033007;28;19977;-77
2023/05/07 01:34:48;;;;;;;;;;;;;;;7.97;79.86;102156.59;5033086;28;20349;-78
2023/05/07 01:37:14;;;;;;;;;;;;;;;8.01;78.53;102163.16;5033477;28;19942;-79
2023/05/07 01:39:40;;;;;;;;;;;;;;;7.91;79.11;102163.63;5032435;28;19956;-78
2023/05/07 01:42:05;;;;;;;;;;;;;;;7.96;78.81;102160.31;5032172;28;20428;-78
2023/05/07 01:44:31;;;;;;;;;;;;;;;8.01;78.27;102163.16;5004717;28;20298;-78
2023/05/07 01:46:57;;;;;;;;;;;;;;;7.89;78.95;102174.50;5042126;28;20408;-79
2023/05/07 01:49:22;;;;;;;;;;;;;;;7.97;78.57;102168.09;5033797;28;20589;-79
2023/05/07 01:51:48;;;;;;;;;;;;;;;7.94;78.97;102164.00;5017940;28;20027;-80
2023/05/07 01:54:14;;;;;;;;;;;;;;;8.05;78.75;102167.00;5032993;28;19931;-79
2023/05/07 01:56:40;;;;;;;;;;;;;;;7.97;79.12;102159.28;5033077;28;19983;-79
2023/05/07 01:59:05;;;;;;;;;;;;;;;7.94;79.26;102166.69;5033214;28;20405;-79
2023/05/07 02:01:31;;;;;;;;;;;;;;;7.91;79.53;102168.94;5041166;28;19985;-80
2023/05/07 02:03:56;;;;;;;;;;;;;;;7.93;79.62;102170.38;5030193;28;19977;-80
2023/05/07 02:06:25;;;;;;;;;;;;;;;7.87;80.05;102181.09;5028522;28;19967;-82
2023/05/07 02:08:55;;;;;;;;;;;;;;;7.98;79.92;102179.56;5028624;28;19990;-81
2023/05/07 02:11:20;;;;;;;;;;;;;;;7.97;79.71;102185.94;5018560;28;19949;-82
2023/05/07 02:13:46;;;;;;;;;;;;;;;7.93;79.96;102191.72;5016769;28;20316;-81
2023/05/07 02:16:15;;;;;;;;;;;;;;;7.98;80.12;102188.38;5020713;28;19980;-82
2023/05/07 02:18:40;;;;;;;;;;;;;;;7.98;80.30;102184.91;5028417;28;19951;-81
2023/05/07 02:21:06;;;;;;;;;;;;;;;8.05;80.00;102191.81;5053804;28;20508;-80
2023/05/07 02:23:32;;;;;;;;;;;;;;;7.94;80.88;102190.69;5017123;28;19954;-80
2023/05/07 02:25:58;;;;;;;;;;;;;;;7.97;80.98;102201.94;5052360;28;19930;-79
2023/05/07 02:28:23;;;;;;;;;;;;;;;7.90;81.81;102197.47;5033928;28;19956;-81
2023/05/07 02:30:53;;;;;;;;;;;;;;;7.93;81.74;102197.06;5028011;28;20460;-79
2023/05/07 02:33:19;;;;;;;;;;;;;;;7.91;82.29;102193.78;5035744;28;19932;-81
2023/05/07 02:35:45;;;;;;;;;;;;;;;7.98;81.79;102193.72;5037095;28;19936;-80
2023/05/07 02:38:12;;;;;;;;;;;;;;;7.91;82.33;102184.97;5010693;28;19958;-80
2023/05/07 02:40:39;;;;;;;;;;;;;;;7.96;82.32;102184.31;5015315;28;19936;-78
2023/05/07 02:43:05;;;;;;;;;;;;;;;7.94;82.17;102196.03;5030655;28;19961;-80
2023/05/07 02:45:32;;;;;;;;;;;;;;;7.88;82.65;102196.88;5045002;28;19933;-80
2023/05/07 02:47:57;;;;;;;;;;;;;;;7.96;82.38;102195.00;5032762;28;19974;-79
2023/05/07 02:50:23;;;;;;;;;;;;;;;7.92;82.42;102192.75;5030009;28;19963;-78
2023/05/07 02:52:48;;;;;;;;;;;;;;;7.83;82.97;102191.38;5026872;28;20016;-79
2023/05/07 02:55:14;;;;;;;;;;;;;;;7.83;82.83;102195.91;5014495;28;20324;-79
2023/05/07 02:57:40;;;;;;;;;;;;;;;7.79;82.99;102200.00;5027792;28;19931;-78
2023/05/07 03:00:10;;;;;;;;;;;;;;;7.80;83.03;102205.16;5025362;28;20349;-79
2023/05/07 03:02:36;;;;;;;;;;;;;;;7.79;83.15;102202.69;5034837;28;19956;-79
2023/05/07 03:05:02;;;;;;;;;;;;;;;7.88;83.08;102204.88;5033235;28;19932;-78
2023/05/07 03:07:27;;;;;;;;;;;;;;;7.76;83.42;102205.78;5032904;28;20024;-80
2023/05/07 03:09:53;;;;;;;;;;;;;;;7.75;83.18;102204.97;5027935;28;19965;-80
2023/05/07 03:12:19;;;;;;;;;;;;;;;7.79;83.48;102208.00;5034289;28;19996;-81
2023/05/07 03:14:44;;;;;;;;;;;;;;;7.79;83.88;102200.84;5051308;28;19935;-81
2023/05/07 03:17:10;;;;;;;;;;;;;;;7.72;84.17;102202.72;5030048;28;19966;-80
2023/05/07 03:19:36;;;;;;;;;;;;;;;7.80;82.86;102207.81;5014933;28;19955;-78
2023/05/07 03:22:01;;;;;;;;;;;;;;;7.87;82.89;102207.78;5032478;28;19966;-81
2023/05/07 03:24:27;;;;;;;;;;;;;;;7.84;83.14;102206.34;5032844;28;19939;-78
2023/05/07 03:26:53;;;;;;;;;;;;;;;7.74;83.97;102206.00;5034558;28;19925;-81
2023/05/07 03:29:19;;;;;;;;;;;;;;;7.80;83.30;102207.81;5036811;28;20000;-78
2023/05/07 03:31:45;;;;;;;;;;;;;;;7.76;83.53;102209.28;5021033;28;19933;-79
2023/05/07 03:34:11;;;;;;;;;;;;;;;7.82;83.06;102208.41;5027127;28;19945;-80
2023/05/07 03:36:36;;;;;;;;;;;;;;;7.79;82.97;102198.19;5032073;28;20030;-78
2023/05/07 03:39:04;;;;;;;;;;;;;;;7.83;82.49;102199.38;5010095;28;19944;-80
2023/05/07 03:41:36;;;;;;;;;;;;;;;7.83;81.92;102196.72;5014438;28;21867;-78
2023/05/07 03:44:01;;;;;;;;;;;;;;;7.85;82.10;102194.63;5047291;28;19964;-78
2023/05/07 03:46:28;;;;;;;;;;;;;;;7.80;82.81;102194.50;5042115;28;19957;-79
2023/05/07 03:48:54;;;;;;;;;;;;;;;7.77;80.80;102202.91;5031802;28;19943;-79
2023/05/07 03:51:20;;;;;;;;;;;;;;;7.77;81.48;102213.56;4998955;28;19938;-78
2023/05/07 03:53:45;;;;;;;;;;;;;;;7.83;80.99;102212.72;5033956;28;19942;-80
2023/05/07 03:56:11;;;;;;;;;;;;;;;7.98;79.76;102200.91;5016901;28;19930;-78
2023/05/07 03:58:39;;;;;;;;;;;;;;;7.93;80.03;102202.41;5029341;28;19960;-79
2023/05/07 04:01:07;;;;;;;;;;;;;;;7.90;79.77;102208.16;5028832;28;19952;-78
2023/05/07 04:03:33;;;;;;;;;;;;;;;7.90;80.03;102207.34;5044608;28;20030;-78
2023/05/07 04:05:59;;;;;;;;;;;;;;;7.86;80.28;102214.16;5027441;28;19945;-78
2023/05/07 04:08:25;;;;;;;;;;;;;;;7.91;79.99;102214.28;5015647;28;19956;-79
2023/05/07 04:10:56;;;;;;;;;;;;;;;7.87;79.85;102219.25;5016912;28;20510;-78
2023/05/07 04:13:23;;;;;;;;;;;;;;;7.86;80.43;102212.31;5048307;28;19932;-78
2023/05/07 04:15:50;;;;;;;;;;;;;;;8.00;80.05;102220.22;5029179;28;19936;-79
2023/05/07 04:18:18;;;;;;;;;;;;;;;7.98;80.21;102219.59;4997414;28;20046;-79
2023/05/07 04:20:45;;;;;;;;;;;;;;;7.90;80.32;102221.50;5031312;28;19982;-77
2023/05/07 04:23:13;;;;;;;;;;;;;;;7.92;80.49;102226.59;5048552;28;19953;-77
2023/05/07 04:25:39;;;;;;;;;;;;;;;7.94;80.53;102220.03;5033903;28;19965;-77
2023/05/07 04:28:17;;;;;;;;;;;;;;;7.90;80.64;102223.34;5033636;28;19969;-80
2023/05/07 04:30:43;;;;;;;;;;;;;;;7.93;80.24;102229.06;5035348;28;20292;-76
2023/05/07 04:33:10;;;;;;;;;;;;;;;7.97;80.67;102229.44;5019480;28;19958;-78
2023/05/07 04:35:36;;;;;;;;;;;;;;;7.96;80.88;102224.34;5016588;28;19990;-79
2023/05/07 04:38:04;;;;;;;;;;;;;;;7.99;80.74;102218.56;5034998;28;19971;-76
2023/05/07 04:40:29;;;;;;;;;;;;;;;7.99;81.09;102222.03;5052021;28;19935;-80
2023/05/07 04:42:55;;;;;;;;;;;;;;;8.09;80.30;102227.72;5031619;28;19952;-78
2023/05/07 04:45:21;;;;;;;;;;;;;;;8.08;79.40;102220.75;5020423;28;19941;-76
2023/05/07 04:47:47;;;;;;;;;;;;;;;8.05;78.83;102221.16;5025707;28;19979;-79
2023/05/07 04:50:13;;;;;;;;;;;;;;;8.12;78.83;102224.59;5029140;28;19936;-77
2023/05/07 04:52:39;;;;;;;;;;;;;;;8.17;78.68;102218.63;5028449;28;19937;-77
2023/05/07 04:55:05;;;;;;;;;;;;;;;8.10;79.02;102225.88;5033509;28;20294;-78
2023/05/07 04:57:35;;;;;;;;;;;;;;;8.12;78.84;102232.63;5019770;28;20444;-80
2023/05/07 05:00:01;;;;;;;;;;;;;;;8.09;79.35;102227.72;5032514;28;19960;-78
2023/05/07 05:02:27;;;;;;;;;;;;;;;8.16;78.72;102233.81;5031880;28;19954;-78
2023/05/07 05:04:53;;;;;;;;;;;;;;;8.23;78.10;102243.63;5019112;28;19929;-77
2023/05/07 05:07:18;;;;;;;;;;;;;;;8.23;78.46;102239.13;5016216;28;20484;-78
2023/05/07 05:09:44;;;;;;;;;;;;;;;8.20;78.45;102247.56;5019435;28;19955;-77
2023/05/07 05:12:10;;;;;;;;;;;;;;;8.24;78.74;102247.94;5053862;28;20025;-78
2023/05/07 05:14:37;;;;;;;;;;;;;;;8.21;78.33;102247.34;5038044;28;19942;-77
2023/05/07 05:17:03;;;;;;;;;;;;;;;8.29;78.32;102240.91;5033294;28;20441;-77
2023/05/07 05:19:29;;;;;;;;;;;;;;;8.27;78.02;102245.66;5030182;28;19995;-78
2023/05/07 05:21:54;;;;;;;;;;;;;;;8.15;78.13;102248.22;5019536;28;19968;-79
2023/05/07 05:24:20;;;;;;;;;;;;;;;8.23;78.05;102247.13;5018892;28;19929;-78
2023/05/07 05:26:45;;;;;;;;;;;;;;;8.25;78.07;102241.56;5050048;28;19936;-77
2023/05/07 05:29:11;;;;;;;;;;;;;;;8.32;78.39;102240.47;5030235;28;19969;-77
2023/05/07 05:31:41;;;;;;;;;;;;;;;8.38;78.13;102241.47;5037550;28;19932;-77
2023/05/07 05:34:07;;;;;;;;;;;;;;;8.33;78.17;102239.47;5033479;28;20286;-77
2023/05/07 05:36:32;;;;;;;;;;;;;;;8.30;78.50;102242.53;5036827;28;19934;-77
2023/05/07 05:38:58;;;;;;;;;;;;;;;8.30;78.32;102242.53;5034969;28;19956;-78
2023/05/07 05:41:23;;;;;;;;;;;;;;;8.33;77.91;102252.81;5025652;28;20347;-77
2023/05/07 05:43:49;;;;;;;;;;;;;;;8.28;77.51;102252.63;5036992;28;19945;-79
2023/05/07 05:46:15;;;;;;;;;;;;;;;8.26;78.24;102256.53;5039155;28;19984;-79
2023/05/07 05:48:41;;;;;;;;;;;;;;;8.30;78.33;102263.09;5039051;28;20003;-78
2023/05/07 05:51:10;;;;;;;;;;;;;;;8.34;77.87;102262.44;5032067;28;20003;-78
2023/05/07 05:53:35;;;;;;;;;;;;;;;8.37;77.58;102267.38;5043759;28;19962;-78
2023/05/07 05:56:02;;;;;;;;;;;;;;;8.44;77.66;102261.97;5038900;28;19950;-79
2023/05/07 05:58:30;;;;;;;;;;;;;;;8.42;77.05;102267.53;5034364;28;19956;-79
2023/05/07 06:01:02;;;;;;;;;;;;;;;8.49;77.22;102272.81;5019962;28;20576;-78
2023/05/07 06:03:27;;;;;;;;;;;;;;;8.43;76.95;102268.34;5030088;28;20002;-79
2023/05/07 06:05:54;;;;;;;;;;;;;;;8.51;76.54;102284.09;5047585;28;19940;-79
2023/05/07 06:08:21;;;;;;;;;;;;;;;8.46;77.03;102275.91;5009880;28;19955;-76
2023/05/07 06:10:47;;;;;;;;;;;;;;;8.53;76.58;102275.84;5042433;28;19941;-76
2023/05/07 06:13:13;;;;;;;;;;;;;;;8.57;76.42;102271.72;5036780;28;19946;-78
2023/05/07 06:15:40;;;;;;;;;;;;;;;8.55;76.42;102279.97;5029687;28;20030;-78
2023/05/07 06:18:09;;;;;;;;;;;;;;;8.54;77.14;102288.19;5033660;28;19955;-77
2023/05/07 06:20:35;;;;;;;;;;;;;;;8.59;76.62;102280.34;5034703;28;19941;-77
2023/05/07 06:23:03;;;;;;;;;;;;;;;8.58;76.74;102284.03;5036933;28;20351;-77
2023/05/07 06:25:31;;;;;;;;;;;;;;;8.56;77.50;102280.78;5034388;28;19978;-77
2023/05/07 06:27:57;;;;;;;;;;;;;;;8.56;77.14;102283.44;5049565;28;19990;-78
2023/05/07 06:30:24;;;;;;;;;;;;;;;8.72;76.66;102281.03;5032242;28;19939;-78
2023/05/07 06:32:50;;;;;;;;;;;;;;;8.67;76.95;102282.72;5018964;28;19928;-78
2023/05/07 06:35:16;;;;;;;;;;;;;;;8.66;76.88;102281.91;5037114;28;19938;-77
2023/05/07 06:37:42;;;;;;;;;;;;;;;8.68;76.95;102284.38;5054766;28;20004;-80
2023/05/07 06:40:13;;;;;;;;;;;;;;;8.67;77.10;102280.91;5046579;28;20356;-78
2023/05/07 06:42:39;;;;;;;;;;;;;;;8.68;77.41;102273.69;5030838;28;20577;-78
2023/05/07 06:45:33;;;;;;;;;;;;;;;8.77;77.05;102284.91;5050227;28;20330;-78
2023/05/07 06:47:59;;;;;;;;;;;;;;;8.65;77.22;102279.47;5021791;28;19951;-76
2023/05/07 06:50:25;;;;;;;;;;;;;;;8.60;77.23;102281.97;5036371;28;19941;-77
2023/05/07 06:52:55;;;;;;;;;;;;;;;8.64;77.30;102281.31;5028983;28;19944;-77
2023/05/07 06:55:20;;;;;;;;;;;;;;;8.64;77.55;102292.00;5035131;28;19947;-77
2023/05/07 06:57:46;;;;;;;;;;;;;;;8.72;77.10;102297.06;5029619;28;20283;-79
2023/05/07 07:00:12;;;;;;;;;;;;;;;8.71;77.51;102289.28;5030414;28;19935;-80
2023/05/07 07:02:50;;;;;;;;;;;;;;;8.85;77.02;102288.09;5033918;28;20003;-79
2023/05/07 07:05:18;;;;;;;;;;;;;;;9.00;76.45;102287.75;5029433;28;19939;-78
2023/05/07 07:07:44;;;;;;;;;;;;;;;9.01;76.67;102284.88;5028097;28;19959;-77
2023/05/07 07:10:10;;;;;;;;;;;;;;;9.02;75.89;102291.84;5034178;28;20386;-79
2023/05/07 07:12:35;;;;;;;;;;;;;;;9.00;75.61;102288.56;5049743;28;20431;-78
2023/05/07 07:15:02;;;;;;;;;;;;;;;9.09;75.42;102291.78;5038463;28;19961;-77
2023/05/07 07:17:29;;;;;;;;;;;;;;;9.10;75.54;102281.91;5016518;28;19975;-77
2023/05/07 07:19:54;;;;;;;;;;;;;;;9.16;75.26;102291.72;5028949;28;19952;-78
2023/05/07 07:22:20;;;;;;;;;;;;;;;9.14;75.18;102289.25;5037586;28;19959;-77
2023/05/07 07:24:46;;;;;;;;;;;;;;;9.23;75.07;102292.47;5034171;28;19976;-78
2023/05/07 07:27:14;;;;;;;;;;;;;;;9.26;75.27;102281.31;5022635;28;20028;-77
2023/05/07 07:29:39;;;;;;;;;;;;;;;9.31;74.50;102284.13;5030672;28;20421;-78
2023/05/07 07:32:05;;;;;;;;;;;;;;;9.35;74.67;102274.63;5027364;28;20350;-80
2023/05/07 07:34:31;;;;;;;;;;;;;;;9.40;74.25;102277.44;5017655;28;19957;-76
2023/05/07 07:36:57;;;;;;;;;;;;;;;9.44;74.72;102273.28;5034019;28;19963;-76
2023/05/07 07:39:23;;;;;;;;;;;;;;;9.45;74.43;102272.25;5051700;28;20013;-78
2023/05/07 07:41:52;;;;;;;;;;;;;;;9.48;74.55;102279.84;5017341;28;19961;-77
2023/05/07 07:44:19;;;;;;;;;;;;;;;9.43;74.42;102287.69;5034615;28;19960;-78
2023/05/07 07:46:50;;;;;;;;;;;;;;;9.51;74.75;102289.25;5048754;28;19937;-77
2023/05/07 07:49:16;;;;;;;;;;;;;;;9.48;74.46;102295.03;5028652;28;19983;-79
2023/05/07 07:51:43;;;;;;;;;;;;;;;9.51;74.88;102282.03;5030021;28;19934;-78
2023/05/07 07:54:09;;;;;;;;;;;;;;;9.66;74.27;102288.84;5035561;28;19948;-77
2023/05/07 07:56:35;;;;;;;;;;;;;;;9.67;73.93;102285.94;5033893;28;19939;-77
2023/05/07 07:59:03;;;;;;;;;;;;;;;9.59;74.02;102283.59;5040670;28;19963;-79
2023/05/07 08:01:29;;;;;;;;;;;;;;;9.67;74.25;102287.81;5044351;28;20030;-77
2023/05/07 08:03:55;;;;;;;;;;;;;;;9.61;73.92;102294.06;5031631;28;19937;-77
2023/05/07 08:06:21;;;;;;;;;;;;;;;9.74;73.60;102309.94;5036586;28;20029;-79
2023/05/07 08:08:46;;;;;;;;;;;;;;;9.79;73.48;102302.06;5049557;28;20444;-79
2023/05/07 08:11:12;;;;;;;;;;;;;;;9.69;73.54;102304.47;5035528;28;19931;-78
2023/05/07 08:13:37;;;;;;;;;;;;;;;9.73;73.76;102298.41;5017157;28;19939;-78
2023/05/07 08:16:03;;;;;;;;;;;;;;;9.80;73.61;102306.38;5032829;28;19998;-78
2023/05/07 08:18:29;;;;;;;;;;;;;;;9.91;73.25;102308.28;5032106;28;19954;-79
2023/05/07 08:20:56;;;;;;;;;;;;;;;9.96;73.06;102312.97;5032837;28;20297;-77
2023/05/07 08:23:25;;;;;;;;;;;;;;;9.88;72.31;102318.59;5017523;28;19943;-80
2023/05/07 08:25:51;;;;;;;;;;;;;;;10.06;71.92;102310.53;5019162;28;20024;-80
2023/05/07 08:28:17;;;;;;;;;;;;;;;10.17;71.90;102304.41;5015970;28;19956;-79
2023/05/07 08:30:42;;;;;;;;;;;;;;;10.26;71.58;102312.97;5037885;28;19929;-81
2023/05/07 08:33:08;;;;;;;;;;;;;;;10.30;71.64;102314.16;5028630;28;19933;-80
2023/05/07 08:35:34;;;;;;;;;;;;;;;9.97;71.52;102310.06;5018915;28;19949;-80
2023/05/07 08:37:59;;;;;;;;;;;;;;;9.96;72.56;102311.09;5033153;28;20057;-80
2023/05/07 08:40:28;;;;;;;;;;;;;;;10.02;73.29;102307.50;5010350;28;22657;-79
2023/05/07 08:42:56;;;;;;;;;;;;;;;10.17;72.94;102314.31;5036177;28;19947;-79
2023/05/07 08:45:22;;;;;;;;;;;;;;;10.13;72.05;102314.75;5029334;28;20366;-79
2023/05/07 08:47:52;;;;;;;;;;;;;;;10.11;72.62;102316.03;5026058;28;19940;-78
2023/05/07 08:50:21;;;;;;;;;;;;;;;9.89;72.76;102315.72;5001708;28;19938;-79
2023/05/07 08:52:48;;;;;;;;;;;;;;;10.08;72.44;102325.31;5030480;28;19931;-80
2023/05/07 08:55:13;;;;;;;;;;;;;;;10.19;72.11;102328.28;5032336;28;19950;-79
2023/05/07 08:57:39;;;;;;;;;;;;;;;9.95;72.63;102328.19;4995872;28;19935;-79
2023/05/07 09:00:06;;;;;;;;;;;;;;;9.98;72.12;102333.09;5025126;28;19949;-79
2023/05/07 09:02:37;;;;;;;;;;;;;;;9.89;72.40;102338.97;5031597;28;19963;-81
2023/05/07 09:05:04;;;;;;;;;;;;;;;9.98;72.41;102330.41;5017017;28;20018;-80
2023/05/07 09:07:30;;;;;;;;;;;;;;;9.99;72.37;102340.06;5025498;28;19928;-79
2023/05/07 09:09:57;;;;;;;;;;;;;;;10.27;71.90;102338.69;5053508;28;19948;-81
2023/05/07 09:12:23;;;;;;;;;;;;;;;10.00;71.41;102339.03;5028423;28;19939;-80
2023/05/07 09:14:49;;;;;;;;;;;;;;;10.22;72.02;102330.50;5030327;28;19950;-79
2023/05/07 09:17:15;;;;;;;;;;;;;;;10.39;70.14;102335.00;5033741;28;19985;-79
2023/05/07 09:19:43;;;;;;;;;;;;;;;10.53;70.39;102335.63;5024829;28;19952;-80
2023/05/07 09:22:08;;;;;;;;;;;;;;;10.89;70.18;102348.00;5030159;28;20309;-80
2023/05/07 09:24:50;;;;;;;;;;;;;;;10.85;68.40;102351.41;5015239;28;19988;-80
2023/05/07 09:27:18;;;;;;;;;;;;;;;10.93;68.77;102346.50;5021970;28;19938;-80
2023/05/07 09:29:44;;;;;;;;;;;;;;;11.28;68.31;102347.53;5018699;28;19953;-81
2023/05/07 09:32:10;;;;;;;;;;;;;;;11.10;68.38;102354.63;5031645;28;19988;-79
2023/05/07 09:34:36;;;;;;;;;;;;;;;11.09;68.57;102350.34;5015131;28;20019;-78
2023/05/07 09:37:02;;;;;;;;;;;;;;;10.81;69.25;102355.56;5025224;28;19939;-81
2023/05/07 09:39:44;;;;;;;;;;;;;;;11.17;68.95;102341.94;5013246;28;19949;-80
2023/05/07 09:42:12;;;;;;;;;;;;;;;11.26;68.92;102349.66;5033668;28;20459;-80
2023/05/07 09:44:38;;;;;;;;;;;;;;;11.23;68.29;102344.72;5016630;28;20309;-79
2023/05/07 09:47:10;;;;;;;;;;;;;;;11.07;68.80;102346.25;5003377;28;19927;-79
2023/05/07 09:49:42;;;;;;;;;;;;;;;10.85;69.24;102348.72;5010629;28;19959;-77
2023/05/07 09:52:10;;;;;;;;;;;;;;;10.73;69.42;102353.25;5029870;28;20033;-78
2023/05/07 09:54:43;;;;;;;;;;;;;;;10.63;69.97;102354.63;5028794;28;19931;-78
2023/05/07 09:57:10;;;;;;;;;;;;;;;10.99;69.51;102343.94;5032544;28;19931;-78
2023/05/07 09:59:38;;;;;;;;;;;;;;;11.27;68.64;102356.63;5027543;28;19945;-76
2023/05/07 10:02:10;;;;;;;;;;;;;;;10.98;68.56;102361.88;5049304;28;20618;-78
2023/05/07 10:04:43;;;;;;;;;;;;;;;11.03;68.73;102355.81;5026851;28;19939;-77
2023/05/07 10:07:09;;;;;;;;;;;;;;;11.18;68.62;102354.31;5033272;28;19966;-78
2023/05/07 10:09:38;;;;;;;;;;;;;;;11.23;68.58;102355.47;5011146;28;20026;-78
2023/05/07 10:12:05;;;;;;;;;;;;;;;11.02;68.57;102371.09;5005338;28;19980;-77
2023/05/07 10:14:32;;;;;;;;;;;;;;;11.01;68.82;102353.38;5038561;28;19949;-77
2023/05/07 10:16:59;;;;;;;;;;;;;;;10.99;68.81;102349.31;5003417;28;20015;-76
2023/05/07 10:19:26;;;;;;;;;;;;;;;10.98;68.93;102353.84;5023654;28;20034;-77
2023/05/07 10:21:56;;;;;;;;;;;;;;;10.96;69.52;102350.56;5015322;28;19968;-77
2023/05/07 10:24:26;;;;;;;;;;;;;;;11.46;68.21;102342.03;5011068;28;20906;-77
2023/05/07 10:26:53;;;;;;;;;;;;;;;11.28;67.91;102348.34;5030040;28;19933;-76
2023/05/07 10:29:23;;;;;;;;;;;;;;;11.45;67.51;102337.72;5026459;28;19993;-76
2023/05/07 10:31:55;;;;;;;;;;;;;;;11.48;67.29;102353.34;5026659;28;20869;-75
2023/05/07 10:34:22;;;;;;;;;;;;;;;11.34;66.48;102351.97;5039624;28;20392;-77
2023/05/07 10:36:50;;;;;;;;;;;;;;;11.23;67.12;102355.47;5011990;28;19968;-75
2023/05/07 10:39:16;;;;;;;;;;;;;;;11.29;67.37;102355.34;5023215;28;19956;-77
2023/05/07 10:41:42;;;;;;;;;;;;;;;11.58;67.27;102355.41;5024199;28;20394;-78
2023/05/07 10:44:09;;;;;;;;;;;;;;;11.71;68.45;102365.88;5007619;28;20454;-76
2023/05/07 10:46:36;;;;;;;;;;;;;;;11.30;66.46;102361.50;5033409;28;19945;-76
2023/05/07 10:49:19;;;;;;;;;;;;;;;11.21;67.94;102358.38;5010675;28;19995;-76
2023/05/07 10:52:11;;;;;;;;;;;;;;;11.42;67.45;102360.44;5010580;28;19939;-77
2023/05/07 10:54:38;;;;;;;;;;;;;;;11.71;67.18;102353.25;5026726;28;19945;-77
2023/05/07 10:57:29;;;;;;;;;;;;;;;12.05;65.79;102353.41;5027128;28;20399;-76
2023/05/07 10:59:56;;;;;;;;;;;;;;;11.88;65.28;102355.25;5026360;28;19984;-78
2023/05/07 11:02:45;;;;;;;;;;;;;;;11.88;65.79;102350.69;5026158;28;19954;-76
2023/05/07 11:05:19;;;;;;;;;;;;;;;12.01;64.84;102349.59;5035040;28;19938;-77
2023/05/07 11:07:53;;;;;;;;;;;;;;;12.39;64.43;102356.16;5021185;28;19928;-77
2023/05/07 11:10:20;;;;;;;;;;;;;;;12.53;63.78;102354.81;5047828;28;19950;-77
2023/05/07 11:12:53;;;;;;;;;;;;;;;12.30;64.05;102353.88;5043884;28;19931;-77
2023/05/07 11:15:38;;;;;;;;;;;;;;;12.58;63.59;102350.31;5009430;28;19993;-76
2023/05/07 11:18:10;;;;;;;;;;;;;;;12.30;63.55;102359.25;5027225;28;19950;-78
2023/05/07 11:20:43;;;;;;;;;;;;;;;12.76;63.51;102353.84;5030870;28;19939;-77
2023/05/07 11:23:34;;;;;;;;;;;;;;;12.69;62.19;102364.75;5025160;28;19958;-77
2023/05/07 11:26:11;;;;;;;;;;;;;;;12.50;63.27;102355.31;5031260;28;20752;-76
2023/05/07 11:28:39;;;;;;;;;;;;;;;12.75;62.99;102352.22;5036167;28;19952;-77
2023/05/07 11:31:05;;;;;;;;;;;;;;;12.83;64.15;102349.94;5012520;28;19950;-77
2023/05/07 11:33:31;;;;;;;;;;;;;;;13.05;62.53;102351.84;5040834;28;19935;-77
2023/05/07 11:35:59;;;;;;;;;;;;;;;13.27;61.68;102350.03;5029809;28;19942;-77
2023/05/07 11:38:34;;;;;;;;;;;;;;;12.96;61.30;102351.47;5028162;28;20677;-76
2023/05/07 11:41:00;;;;;;;;;;;;;;;12.86;61.62;102335.16;5021093;28;19991;-77
2023/05/07 11:43:26;;;;;;;;;;;;;;;12.98;60.91;102343.16;5024018;28;19964;-77
2023/05/07 11:45:52;;;;;;;;;;;;;;;12.89;61.29;102347.31;5006370;28;19936;-77
2023/05/07 11:48:17;;;;;;;;;;;;;;;13.28;61.14;102349.00;5023048;28;20615;-78
2023/05/07 11:50:50;;;;;;;;;;;;;;;13.51;61.85;102339.06;5025255;28;20030;-76
2023/05/07 11:53:17;;;;;;;;;;;;;;;13.35;60.39;102338.88;5028246;28;19947;-77
2023/05/07 11:55:42;;;;;;;;;;;;;;;13.59;60.33;102333.25;5041462;28;19942;-77
2023/05/07 11:58:09;;;;;;;;;;;;;;;14.08;59.46;102333.22;5040223;28;20045;-76
2023/05/07 12:00:35;;;;;;;;;;;;;;;14.01;58.52;102336.13;5030691;28;20053;-77
2023/05/07 12:03:04;;;;;;;;;;;;;;;14.24;58.14;102326.13;5022460;28;19963;-76
2023/05/07 12:05:30;;;;;;;;;;;;;;;14.46;58.62;102326.91;5036575;28;19941;-76
2023/05/07 12:07:56;;;;;;;;;;;;;;;14.38;58.94;102328.16;5023766;28;19937;-78
2023/05/07 12:10:24;;;;;;;;;;;;;;;14.44;57.61;102321.72;5028487;28;19937;-76
2023/05/07 12:12:50;;;;;;;;;;;;;;;14.35;59.00;102328.66;5022044;28;20035;-76
2023/05/07 12:15:16;;;;;;;;;;;;;;;14.59;58.65;102331.84;5028975;28;20030;-78
2023/05/07 12:17:41;;;;;;;;;;;;;;;14.65;57.39;102328.13;5029439;28;19938;-77
2023/05/07 12:20:07;;;;;;;;;;;;;;;14.69;57.39;102331.91;5028992;28;19953;-77
2023/05/07 12:22:33;;;;;;;;;;;;;;;14.97;57.51;102336.19;5022900;28;19964;-78
2023/05/07 12:24:59;;;;;;;;;;;;;;;14.67;59.07;102335.94;5027481;28;19936;-78
2023/05/07 12:27:25;;;;;;;;;;;;;;;14.23;58.75;102335.28;5032384;28;19944;-77
2023/05/07 12:29:51;;;;;;;;;;;;;;;14.13;58.04;102317.13;5028492;28;19973;-75
2023/05/07 12:32:17;;;;;;;;;;;;;;;14.22;59.03;102329.06;5024681;28;19932;-76
2023/05/07 12:34:43;;;;;;;;;;;;;;;13.85;58.99;102337.03;5026097;28;20694;-77
2023/05/07 12:37:09;;;;;;;;;;;;;;;13.86;58.62;102336.78;5040315;28;19929;-77
2023/05/07 12:39:35;;;;;;;;;;;;;;;14.03;59.04;102333.22;5040374;28;20361;-77
2023/05/07 12:42:01;;;;;;;;;;;;;;;14.07;58.55;102334.31;5032623;28;20458;-77
2023/05/07 12:44:30;;;;;;;;;;;;;;;14.23;57.56;102335.28;5030938;28;19978;-77